Allendale, Illinois
Current Conditions -  °F | °C
As of 10:55 AM on Thursday 23 Oct 2014 (Local Time) from KAJG Reporting Station
Clear Clear  
Wind Chill: 13°   Ceiling: Unl
Heat Index: 13°   Visibility: 7mi
Dew Point:   Wind: 7mph
Humidity: 67%   Direction: 190°S
Pressure: 30.25"   Gusts: NA
Location:  38.53°N, 87.71°W
Report Text: KAJG 231555Z AUTO 19006KT 7SM CLR 13/07 A3025 RMK AO2
Loading
Personal Weather Stations






























Interactive Weather Map
Tropical Storm Tracking
New forecast layout! Learn more

10-Day Weather Forecast

Advertisements
Track Severe Weather on mobile